<?xml version="1.0" encoding="UTF-8" standalone="no" ?>
<gpx xmlns="http://www.topografix.com/GPX/1/1" xmlns:xsi="http://www.w3.org/2001/XMLSchema-instance" xsi:schemaLocation="http://www.topografix.com/GPX/1/1 http://www.topografix.com/GPX/1/1/gpx.xsd" version="1.1" creator="VisuGPX - https://www.visugpx.com">
  <metadata>
    <name>MP2025 20km</name>
  </metadata>
  <wpt lat="47.6144" lon="7.21017">
    <ele>301</ele>
    <name><![CDATA[Point de passage 1]]></name>
    <type><![CDATA[GENERIC]]></type>
  </wpt>
  <wpt lat="47.6144" lon="7.21032">
    <ele>301</ele>
    <name><![CDATA[Point de passage 2]]></name>
    <type><![CDATA[GENERIC]]></type>
  </wpt>
  <trk>
    <name><![CDATA[MP2025 20km]]></name>
    <trkseg>
      <trkpt lat="47.6144" lon="7.21017">
        <ele>301</ele>
        <time>2025-04-25T08:14:35.000Z</time>
      </trkpt>
      <trkpt lat="47.61425" lon="7.21015">
        <ele>301</ele>
        <time>2025-04-25T08:14:52.000Z</time>
      </trkpt>
      <trkpt lat="47.61417" lon="7.21076">
        <ele>299</ele>
        <time>2025-04-25T08:15:40.000Z</time>
      </trkpt>
      <trkpt lat="47.61321" lon="7.21">
        <ele>302</ele>
        <time>2025-04-25T08:18:15.000Z</time>
      </trkpt>
      <trkpt lat="47.61322" lon="7.20973">
        <ele>303</ele>
        <time>2025-04-25T08:18:47.000Z</time>
      </trkpt>
      <trkpt lat="47.61165" lon="7.20879">
        <ele>304</ele>
        <time>2025-04-25T08:22:18.000Z</time>
      </trkpt>
      <trkpt lat="47.61136" lon="7.20735">
        <ele>306</ele>
        <time>2025-04-25T08:27:25.000Z</time>
      </trkpt>
      <trkpt lat="47.61035" lon="7.20297">
        <ele>315</ele>
        <time>2025-04-25T08:34:33.000Z</time>
      </trkpt>
      <trkpt lat="47.60844" lon="7.19962">
        <ele>322</ele>
        <time>2025-04-25T08:41:23.000Z</time>
      </trkpt>
      <trkpt lat="47.60679" lon="7.19807">
        <ele>325</ele>
        <time>2025-04-25T08:41:48.000Z</time>
      </trkpt>
      <trkpt lat="47.60505" lon="7.19619">
        <ele>335</ele>
        <time>2025-04-25T08:47:37.000Z</time>
      </trkpt>
      <trkpt lat="47.60459" lon="7.19434">
        <ele>345</ele>
        <time>2025-04-25T08:48:11.000Z</time>
      </trkpt>
      <trkpt lat="47.60375" lon="7.19131">
        <ele>363</ele>
        <time>2025-04-25T09:01:16.000Z</time>
      </trkpt>
      <trkpt lat="47.60249" lon="7.18604">
        <ele>377</ele>
        <time>2025-04-25T09:10:51.000Z</time>
      </trkpt>
      <trkpt lat="47.60166" lon="7.18047">
        <ele>383</ele>
        <time>2025-04-25T09:19:11.000Z</time>
      </trkpt>
      <trkpt lat="47.60337" lon="7.17963">
        <ele>378</ele>
        <time>2025-04-25T09:22:37.000Z</time>
      </trkpt>
      <trkpt lat="47.60208" lon="7.17882">
        <ele>372</ele>
        <time>2025-04-25T09:25:17.000Z</time>
      </trkpt>
      <trkpt lat="47.60136" lon="7.17784">
        <ele>361</ele>
        <time>2025-04-25T09:27:09.000Z</time>
      </trkpt>
      <trkpt lat="47.60026" lon="7.17758">
        <ele>343</ele>
        <time>2025-04-25T09:29:16.000Z</time>
      </trkpt>
      <trkpt lat="47.59771" lon="7.17964">
        <ele>350</ele>
        <time>2025-04-25T09:36:01.000Z</time>
      </trkpt>
      <trkpt lat="47.59694" lon="7.1822">
        <ele>355</ele>
        <time>2025-04-25T09:37:33.000Z</time>
      </trkpt>
      <trkpt lat="47.59497" lon="7.18164">
        <ele>370</ele>
        <time>2025-04-25T09:43:57.000Z</time>
      </trkpt>
      <trkpt lat="47.5943" lon="7.18327">
        <ele>375</ele>
        <time>2025-04-25T09:47:16.000Z</time>
      </trkpt>
      <trkpt lat="47.59368" lon="7.18327">
        <ele>377</ele>
        <time>2025-04-25T09:48:48.000Z</time>
      </trkpt>
      <trkpt lat="47.59329" lon="7.1828">
        <ele>379</ele>
        <time>2025-04-25T09:50:06.000Z</time>
      </trkpt>
      <trkpt lat="47.59167" lon="7.18233">
        <ele>385</ele>
        <time>2025-04-25T09:54:17.000Z</time>
      </trkpt>
      <trkpt lat="47.59086" lon="7.18257">
        <ele>388</ele>
        <time>2025-04-25T09:56:22.000Z</time>
      </trkpt>
      <trkpt lat="47.59008" lon="7.18269">
        <ele>391</ele>
        <time>2025-04-25T09:58:23.000Z</time>
      </trkpt>
      <trkpt lat="47.58918" lon="7.18198">
        <ele>391</ele>
        <time>2025-04-25T10:00:19.000Z</time>
      </trkpt>
      <trkpt lat="47.5887" lon="7.18068">
        <ele>387</ele>
        <time>2025-04-25T10:02:14.000Z</time>
      </trkpt>
      <trkpt lat="47.58874" lon="7.17924">
        <ele>384</ele>
        <time>2025-04-25T10:04:05.000Z</time>
      </trkpt>
      <trkpt lat="47.58818" lon="7.17933">
        <ele>390</ele>
        <time>2025-04-25T10:06:12.000Z</time>
      </trkpt>
      <trkpt lat="47.58814" lon="7.17875">
        <ele>388</ele>
        <time>2025-04-25T10:06:57.000Z</time>
      </trkpt>
      <trkpt lat="47.5835" lon="7.18006">
        <ele>403</ele>
        <time>2025-04-25T10:18:31.000Z</time>
      </trkpt>
      <trkpt lat="47.58209" lon="7.16656">
        <ele>400</ele>
        <time>2025-04-25T10:36:06.000Z</time>
      </trkpt>
      <trkpt lat="47.58191" lon="7.16527">
        <ele>399</ele>
        <time>2025-04-25T10:37:47.000Z</time>
      </trkpt>
      <trkpt lat="47.58133" lon="7.16394">
        <ele>402</ele>
        <time>2025-04-25T10:40:20.000Z</time>
      </trkpt>
      <trkpt lat="47.57919" lon="7.16508">
        <ele>402</ele>
        <time>2025-04-25T10:44:41.000Z</time>
      </trkpt>
      <trkpt lat="47.57719" lon="7.1669">
        <ele>404</ele>
        <time>2025-04-25T10:49:30.000Z</time>
      </trkpt>
      <trkpt lat="47.57575" lon="7.16576">
        <ele>397</ele>
        <time>2025-04-25T10:52:38.000Z</time>
      </trkpt>
      <trkpt lat="47.57468" lon="7.16424">
        <ele>394</ele>
        <time>2025-04-25T10:55:28.000Z</time>
      </trkpt>
      <trkpt lat="47.57386" lon="7.16484">
        <ele>391</ele>
        <time>2025-04-25T10:57:12.000Z</time>
      </trkpt>
      <trkpt lat="47.57307" lon="7.16452">
        <ele>390</ele>
        <time>2025-04-25T10:58:46.000Z</time>
      </trkpt>
      <trkpt lat="47.57182" lon="7.16203">
        <ele>380</ele>
        <time>2025-04-25T11:02:45.000Z</time>
      </trkpt>
      <trkpt lat="47.57093" lon="7.15815">
        <ele>378</ele>
        <time>2025-04-25T11:08:02.000Z</time>
      </trkpt>
      <trkpt lat="47.56975" lon="7.15544">
        <ele>373</ele>
        <time>2025-04-25T11:12:10.000Z</time>
      </trkpt>
      <trkpt lat="47.56933" lon="7.15497">
        <ele>367</ele>
        <time>2025-04-25T11:13:10.000Z</time>
      </trkpt>
      <trkpt lat="47.57025" lon="7.15444">
        <ele>366</ele>
        <time>2025-04-25T11:15:02.000Z</time>
      </trkpt>
      <trkpt lat="47.57082" lon="7.15377">
        <ele>361</ele>
        <time>2025-04-25T11:16:26.000Z</time>
      </trkpt>
      <trkpt lat="47.57143" lon="7.15394">
        <ele>362</ele>
        <time>2025-04-25T11:17:47.000Z</time>
      </trkpt>
      <trkpt lat="47.57184" lon="7.1536">
        <ele>366</ele>
        <time>2025-04-25T11:19:22.000Z</time>
      </trkpt>
      <trkpt lat="47.5723" lon="7.15162">
        <ele>372</ele>
        <time>2025-04-25T11:23:05.000Z</time>
      </trkpt>
      <trkpt lat="47.57333" lon="7.14997">
        <ele>366</ele>
        <time>2025-04-25T11:25:58.000Z</time>
      </trkpt>
      <trkpt lat="47.57465" lon="7.14883">
        <ele>369</ele>
        <time>2025-04-25T11:29:23.000Z</time>
      </trkpt>
      <trkpt lat="47.57433" lon="7.14725">
        <ele>358</ele>
        <time>2025-04-25T11:31:31.000Z</time>
      </trkpt>
      <trkpt lat="47.57575" lon="7.14553">
        <ele>361</ele>
        <time>2025-04-25T11:35:32.000Z</time>
      </trkpt>
      <trkpt lat="47.57633" lon="7.14329">
        <ele>352</ele>
        <time>2025-04-25T11:38:37.000Z</time>
      </trkpt>
      <trkpt lat="47.57748" lon="7.14154">
        <ele>352</ele>
        <time>2025-04-25T11:41:46.000Z</time>
      </trkpt>
      <trkpt lat="47.57779" lon="7.14214">
        <ele>355</ele>
        <time>2025-04-25T11:43:15.000Z</time>
      </trkpt>
      <trkpt lat="47.57769" lon="7.14364">
        <ele>363</ele>
        <time>2025-04-25T11:46:34.000Z</time>
      </trkpt>
      <trkpt lat="47.57709" lon="7.14523">
        <ele>374</ele>
        <time>2025-04-25T11:50:47.000Z</time>
      </trkpt>
      <trkpt lat="47.57669" lon="7.14572">
        <ele>377</ele>
        <time>2025-04-25T11:52:18.000Z</time>
      </trkpt>
      <trkpt lat="47.57669" lon="7.14701">
        <ele>385</ele>
        <time>2025-04-25T11:55:20.000Z</time>
      </trkpt>
      <trkpt lat="47.57705" lon="7.14727">
        <ele>386</ele>
        <time>2025-04-25T11:56:16.000Z</time>
      </trkpt>
      <trkpt lat="47.57989" lon="7.14523">
        <ele>391</ele>
        <time>2025-04-25T12:03:08.000Z</time>
      </trkpt>
      <trkpt lat="47.58206" lon="7.146">
        <ele>390</ele>
        <time>2025-04-25T12:07:24.000Z</time>
      </trkpt>
      <trkpt lat="47.58288" lon="7.15096">
        <ele>388</ele>
        <time>2025-04-25T12:13:58.000Z</time>
      </trkpt>
      <trkpt lat="47.5851" lon="7.15137">
        <ele>386</ele>
        <time>2025-04-25T12:18:14.000Z</time>
      </trkpt>
      <trkpt lat="47.58646" lon="7.15051">
        <ele>384</ele>
        <time>2025-04-25T12:21:03.000Z</time>
      </trkpt>
      <trkpt lat="47.58565" lon="7.1524">
        <ele>388</ele>
        <time>2025-04-25T12:24:37.000Z</time>
      </trkpt>
      <trkpt lat="47.58583" lon="7.15334">
        <ele>390</ele>
        <time>2025-04-25T12:26:14.000Z</time>
      </trkpt>
      <trkpt lat="47.58704" lon="7.15682">
        <ele>389</ele>
        <time>2025-04-25T12:31:16.000Z</time>
      </trkpt>
      <trkpt lat="47.5894" lon="7.16034">
        <ele>384</ele>
        <time>2025-04-25T09:39:06.000Z</time>
      </trkpt>
      <trkpt lat="47.59048" lon="7.15998">
        <ele>381</ele>
        <time>2025-04-25T09:41:13.000Z</time>
      </trkpt>
      <trkpt lat="47.59115" lon="7.15844">
        <ele>378</ele>
        <time>2025-04-25T09:43:35.000Z</time>
      </trkpt>
      <trkpt lat="47.59294" lon="7.15668">
        <ele>374</ele>
        <time>2025-04-25T09:47:41.000Z</time>
      </trkpt>
      <trkpt lat="47.59338" lon="7.15826">
        <ele>378</ele>
        <time>2025-04-25T09:44:19.000Z</time>
      </trkpt>
      <trkpt lat="47.59514" lon="7.15572">
        <ele>381</ele>
        <time>2025-04-25T09:54:32.000Z</time>
      </trkpt>
      <trkpt lat="47.59789" lon="7.15542">
        <ele>387</ele>
        <time>2025-04-25T10:01:55.000Z</time>
      </trkpt>
      <trkpt lat="47.59893" lon="7.15787">
        <ele>383</ele>
        <time>2025-04-25T10:03:59.000Z</time>
      </trkpt>
      <trkpt lat="47.59968" lon="7.15673">
        <ele>382</ele>
        <time>2025-04-25T10:06:02.000Z</time>
      </trkpt>
      <trkpt lat="47.6005" lon="7.15679">
        <ele>380</ele>
        <time>2025-04-25T10:06:10.000Z</time>
      </trkpt>
      <trkpt lat="47.60544" lon="7.16295">
        <ele>375</ele>
        <time>2025-04-25T10:18:29.000Z</time>
      </trkpt>
      <trkpt lat="47.61019" lon="7.16929">
        <ele>334</ele>
        <time>2025-04-25T10:30:40.000Z</time>
      </trkpt>
      <trkpt lat="47.61071" lon="7.1691">
        <ele>335</ele>
        <time>2025-04-25T10:08:24.000Z</time>
      </trkpt>
      <trkpt lat="47.61045" lon="7.1719">
        <ele>328</ele>
        <time>2025-04-25T10:11:26.000Z</time>
      </trkpt>
      <trkpt lat="47.61317" lon="7.17138">
        <ele>330</ele>
        <time>2025-04-25T10:16:38.000Z</time>
      </trkpt>
      <trkpt lat="47.61689" lon="7.17905">
        <ele>333</ele>
        <time>2025-04-25T10:37:01.000Z</time>
      </trkpt>
      <trkpt lat="47.61842" lon="7.18236">
        <ele>332</ele>
        <time>2025-04-25T10:43:05.000Z</time>
      </trkpt>
      <trkpt lat="47.61652" lon="7.18442">
        <ele>315</ele>
        <time>2025-04-25T10:47:35.000Z</time>
      </trkpt>
      <trkpt lat="47.61507" lon="7.1851">
        <ele>315</ele>
        <time>2025-04-25T10:50:29.000Z</time>
      </trkpt>
      <trkpt lat="47.61568" lon="7.18862">
        <ele>315</ele>
        <time>2025-04-25T10:55:09.000Z</time>
      </trkpt>
      <trkpt lat="47.61596" lon="7.19028">
        <ele>316</ele>
        <time>2025-04-25T10:57:32.000Z</time>
      </trkpt>
      <trkpt lat="47.61591" lon="7.19184">
        <ele>316</ele>
        <time>2025-04-25T10:59:32.000Z</time>
      </trkpt>
      <trkpt lat="47.61562" lon="7.19463">
        <ele>312</ele>
        <time>2025-04-25T10:55:55.000Z</time>
      </trkpt>
      <trkpt lat="47.61504" lon="7.19781">
        <ele>309</ele>
        <time>2025-04-25T11:00:09.000Z</time>
      </trkpt>
      <trkpt lat="47.61487" lon="7.20085">
        <ele>308</ele>
        <time>2025-04-25T11:03:49.000Z</time>
      </trkpt>
      <trkpt lat="47.61449" lon="7.20228">
        <ele>307</ele>
        <time>2025-04-25T11:05:28.000Z</time>
      </trkpt>
      <trkpt lat="47.61458" lon="7.20328">
        <ele>306</ele>
        <time>2025-04-25T11:06:46.000Z</time>
      </trkpt>
      <trkpt lat="47.61462" lon="7.20382">
        <ele>306</ele>
        <time>2025-04-25T11:07:28.000Z</time>
      </trkpt>
      <trkpt lat="47.61459" lon="7.20582">
        <ele>304</ele>
        <time>2025-04-25T11:10:02.000Z</time>
      </trkpt>
      <trkpt lat="47.61439" lon="7.20728">
        <ele>302</ele>
        <time>2025-04-25T11:11:57.000Z</time>
      </trkpt>
      <trkpt lat="47.6144" lon="7.2087">
        <ele>302</ele>
        <time>2025-04-25T11:13:46.000Z</time>
      </trkpt>
      <trkpt lat="47.61422" lon="7.21026">
        <ele>300</ele>
        <time>2025-04-25T11:15:48.000Z</time>
      </trkpt>
      <trkpt lat="47.6144" lon="7.21032">
        <ele>301</ele>
        <time>2025-04-25T11:21:06.000Z</time>
      </trkpt>
    </trkseg>
  </trk>
</gpx>